Flight Track Log - Related Links

Times and Time Zones

All times are in EDT time to prevent confusion due to time zone crossing. See the N738NR flight status page for this flight to view local times or setup timezone preferences in your user account.

Time Position Orientation Groundspeed Altitude Reporting Facility
EDT Latitude Longitude Course Direction KTS MPH feet Rate Location/Type
Mon 08:56:24 AM 40.7500 -73.8500 289° West 165 190 1,200  Level New York TRACON
Mon 09:01:10 AM 40.8147 -74.1025 274° West 278 320 13,300 2,352 Climbing New York Center
Mon 09:02:11 AM 40.8203 -74.2014 276° West 317 365 14,800 836 Climbing New York Center
Mon 09:03:12 AM 40.8308 -74.3281 280° West 360 414 15,000 98 Climbing New York Center
Mon 09:04:13 AM 40.8478 -74.4578 277° West 367 422 15,000  Level New York Center
Mon 09:05:12 AM 40.8586 -74.5736 279° West 367 422 15,000 50 Level New York Center
Mon 09:06:12 AM 40.8750 -74.7119 277° West 362 417 15,100 450 Climbing New York Center
Mon 09:07:12 AM 40.8858 -74.8222 277° West 345 397 15,900 1,190 Climbing New York Center
Mon 09:08:13 AM 40.8981 -74.9464 277° West 345 397 17,500 1,513 Climbing New York Center
Mon 09:09:11 AM 40.9103 -75.0708 259° West 339 390 18,900 1,664 Climbing New York Center
Mon 09:10:12 AM 40.8886 -75.2122 254° West 344 396 20,800 1,678 Climbing New York Center
Mon 09:11:09 AM 40.8633 -75.3286 253° West 364 419 22,200 1,576 Climbing New York Center
Mon 09:12:10 AM 40.8331 -75.4608 254° West 370 426 23,900 1,636 Climbing New York Center
Mon 09:13:10 AM 40.8047 -75.5933 254° West 376 433 25,500 1,636 Climbing New York Center
Mon 09:14:11 AM 40.7767 -75.7228 255° West 376 433 27,200 1,672 Climbing New York Center
Mon 09:15:12 AM 40.7503 -75.8497 255° West 376 433 28,900 1,537 Climbing New York Center
Mon 09:16:12 AM 40.7236 -75.9819 253° West 376 433 30,300 1,373 Climbing New York Center
Mon 09:17:10 AM 40.6928 -76.1136 260° West 376 433 31,600 1,328 Climbing New York Center
Mon 09:18:23 AM 40.6706 -76.2789 280° West 376 433 33,200 1,075 Climbing New York Center
Mon 09:19:24 AM 40.6892 -76.4144 282° West 368 423 34,000 403 Climbing New York Center
Mon 09:20:22 AM 40.7119 -76.5506 280° West 379 436 34,000  Level New York Center
Mon 09:21:23 AM 40.7303 -76.6836 281° West 379 436 34,000  Level New York Center
Mon 09:22:24 AM 40.7486 -76.8139 281° West 368 423 34,000  Level New York Center
Mon 09:23:24 AM 40.7689 -76.9500 280° West 373 429 34,000  Level New York Center
Mon 09:24:23 AM 40.7867 -77.0861 282° West 378 435 34,000  Level New York Center
Mon 09:25:23 AM 40.8083 -77.2225 281° West 378 435 34,000  Level New York Center
Mon 09:26:23 AM 40.8283 -77.3561 280° West 378 435 34,000  Level New York Center
Mon 09:28:47 AM 40.8753 -77.7078 281° West 372 428 34,000  Level Cleveland Center
Mon 09:29:47 AM 40.8953 -77.8472 280° West 382 440 34,000  Level Cleveland Center
Mon 09:30:47 AM 40.9131 -77.9839 283° West 387 445 34,000  Level Cleveland Center
Mon 09:31:47 AM 40.9369 -78.1203 282° West 387 445 34,000  Level Cleveland Center
Mon 09:32:47 AM 40.9586 -78.2569 283° West 387 445 34,000  Level Cleveland Center
Mon 09:33:47 AM 40.9822 -78.3964 282° West 387 445 34,000  Level Cleveland Center
Mon 09:34:47 AM 41.0036 -78.5333 283° West 387 445 34,000  Level Cleveland Center
Mon 09:35:47 AM 41.0267 -78.6703 283° West 387 445 34,000 -100 Level Cleveland Center
Mon 09:36:47 AM 41.0497 -78.8072 282° West 387 445 33,800 -600 Descending Cleveland Center
Mon 09:37:47 AM 41.0728 -78.9497 282° West 392 451 32,800 -900 Descending Cleveland Center
Mon 09:38:47 AM 41.0956 -79.0925 280° West 392 451 32,000 -400 Descending Cleveland Center
Mon 09:39:47 AM 41.1139 -79.2300 282° West 392 451 32,000  Level Cleveland Center
Mon 09:40:47 AM 41.1364 -79.3672 282° West 392 451 32,000  Level Cleveland Center
Mon 09:41:47 AM 41.1586 -79.5075 283° West 392 451 32,000  Level Cleveland Center
Mon 09:42:47 AM 41.1828 -79.6478 285° West 392 451 32,000 -50 Level Cleveland Center
Mon 09:43:47 AM 41.2089 -79.7744 288° West 392 451 31,900 -500 Descending Cleveland Center
Mon 09:44:47 AM 41.2431 -79.9178 287° West 392 451 31,000 -450 Descending Cleveland Center
Mon 09:45:47 AM 41.2750 -80.0608 287° West 397 457 31,000  Level Cleveland Center
Mon 09:46:47 AM 41.3069 -80.1989 285° West 397 457 31,000 -1,500 Level Cleveland Center
Mon 09:47:47 AM 41.3386 -80.3536 287° West 397 457 28,000 -3,150 Descending Cleveland Center
Mon 09:48:47 AM 41.3700 -80.4892 285° West 392 451 24,700 -2,000 Descending Cleveland Center
Mon 09:49:47 AM 41.3992 -80.6303 287° West 392 451 24,000 -700 Descending Cleveland Center
Mon 09:50:47 AM 41.4325 -80.7742 286° West 398 458 23,300 -2,050 Descending Cleveland Center
Mon 09:51:47 AM 41.4614 -80.9072 286° West 387 445 19,900 -3,450 Descending Cleveland Center
Mon 09:52:47 AM 41.4900 -81.0406 285° West 377 434 16,400 -3,000 Descending Cleveland Center
Mon 09:53:47 AM 41.5144 -81.1656 290° West 360 414 13,900 -2,050 Descending Cleveland Center
Mon 09:54:47 AM 41.5431 -81.2683 292° West 320 368 12,300 -1,500 Descending Cleveland Center
Mon 09:55:47 AM 41.5697 -81.3547 264° West 297 342 10,900 -1,104 Descending Cleveland Center
Mon 09:56:52 AM 41.5606 -81.4711 236° Southwest 274 315 10,000 -672 Descending Cleveland Center
Mon 09:57:52 AM 41.5203 -81.5511 226° Southwest 260 299 9,500 -730 Descending Cleveland Center
Mon 09:58:47 AM 41.4739 -81.6142 227° Southwest 259 298 8,600 -991 Descending Cleveland Center
Mon 09:59:47 AM 41.4272 -81.6797 227° Southwest 253 291 7,600 -1,087 Descending Cleveland Center
Mon 10:00:54 AM 41.3744 -81.7564 226° Southwest 254 292 6,300 -1,359 Descending Cleveland Center
Mon 10:01:55 AM 41.3258 -81.8244 227° Southwest 254 292 4,700 -1,276 Descending Cleveland Center
Mon 10:03:01 AM 41.2728 -81.9008 328° Northwest 245 282 3,600 -526 Descending Cleveland Center
Mon 10:05:09 AM 41.3450 -81.9606 50° Northeast 229 264 3,000 -670 Descending Cleveland Center
Mon 10:06:09 AM 41.3811 -81.9031 50° Northeast 201 231 1,500 -1,500 Descending Cleveland Center

Login

Don't have an account? Register now (free) for customized features, flight alerts, and more!